Time;durP1;ratioP1;P1;durP2;ratioP2;P2;SDS_P1;SDS_P2;PMS_P1;PMS_P2;Temp;Humidity;BMP_temperature;BMP_pressure;BME280_temperature;BME280_humidity;BME280_pressure;Samples;Min_cycle;Max_cycle;Signal;HPM_P1;HPM_P2
2021/12/12 00:06:59;;;;;;;0.20;0.20;;;5.00;96.10;3.70;101951.00;;;;31233404;28;20037;-78
2021/12/12 00:22:07;;;;;;;0.30;0.30;;;5.00;96.10;3.70;101946.00;;;;31285173;28;20049;-79
2021/12/12 00:37:09;;;;;;;0.22;0.22;;;5.00;96.30;3.70;101935.00;;;;31289017;28;20084;-77
2021/12/12 00:52:14;;;;;;;0.30;0.30;;;5.00;96.00;3.70;101907.00;;;;31285824;28;20163;-79
2021/12/12 01:07:21;;;;;;;0.30;0.30;;;5.10;96.40;3.80;101889.00;;;;31253013;28;20085;-79
2021/12/12 01:22:32;;;;;;;0.30;0.30;;;4.70;96.80;3.80;101900.00;;;;31225997;28;20045;-79
2021/12/12 01:37:38;;;;;;;0.28;0.28;;;5.10;95.90;3.90;101910.00;;;;31279474;28;20049;-78
2021/12/12 01:52:41;;;;;;;;;;;5.20;95.90;4.00;101913.00;;;;31263806;28;20079;-79
2021/12/12 02:13:17;;;;;;;0.20;0.20;;;5.20;96.00;4.00;101909.00;;;;31328249;27;21261;-77
2021/12/12 02:43:46;;;;;;;0.20;0.20;;;5.40;96.20;4.10;101897.00;;;;31262222;28;20040;-76
2021/12/12 02:58:49;;;;;;;0.22;0.22;;;5.40;96.40;4.20;101887.00;;;;31224892;28;20061;-76
2021/12/12 03:13:51;;;;;;;0.50;0.50;;;5.50;96.50;4.30;101856.00;;;;31233551;28;20692;-75
2021/12/12 03:28:56;;;;;;;0.20;0.20;;;5.50;97.00;4.30;101840.00;;;;31191666;28;20096;-76
2021/12/12 03:44:01;;;;;;;0.30;0.30;;;6.70;97.10;4.30;101835.00;;;;31175311;28;20087;-75
2021/12/12 03:59:03;;;;;;;0.63;0.63;;;5.60;97.20;4.30;101828.00;;;;31189697;28;20909;-74
2021/12/12 04:14:08;;;;;;;0.30;0.30;;;5.60;97.30;4.40;101842.00;;;;31181932;28;20049;-75
2021/12/12 04:29:22;;;;;;;0.45;0.45;;;5.70;97.20;4.50;101856.00;;;;31190814;28;20048;-75
2021/12/12 04:44:30;;;;;;;1.05;1.05;;;5.60;97.80;4.50;101845.00;;;;31204019;28;20609;-75
2021/12/12 04:59:44;;;;;;;0.20;0.20;;;5.70;97.60;4.60;101850.00;;;;31211403;28;20063;-74
2021/12/12 05:14:55;;;;;;;0.20;0.20;;;5.90;97.80;4.70;101841.00;;;;31187343;28;20128;-75
2021/12/12 05:30:07;;;;;;;0.20;0.20;;;6.10;98.40;4.90;101850.00;;;;31187211;28;20049;-75
2021/12/12 05:45:10;;;;;;;0.25;0.25;;;6.20;98.00;5.10;101854.00;;;;31187840;28;20045;-75
2021/12/12 06:00:16;;;;;;;0.30;0.30;;;6.20;98.50;5.30;101861.00;;;;31175763;28;20057;-76
2021/12/12 06:15:22;;;;;;;0.50;0.50;;;6.50;98.10;5.40;101858.00;;;;31184547;28;20045;-76
2021/12/12 06:30:25;;;;;;;0.60;0.60;;;6.60;98.00;5.50;101860.00;;;;31174227;28;20308;-76
2021/12/12 06:45:26;;;;;;;0.20;0.20;;;6.60;98.00;5.60;101880.00;;;;31185319;28;20136;-76
2021/12/12 07:00:28;;;;;;;0.30;0.30;;;6.80;98.00;5.70;101846.00;;;;31205412;28;20136;-77
2021/12/12 07:15:35;;;;;;;0.30;0.30;;;6.90;98.10;5.80;101884.00;;;;31188282;28;20053;-78
2021/12/12 07:30:37;;;;;;;0.20;0.20;;;7.00;98.50;5.90;101897.00;;;;31188443;28;20107;-79
2021/12/12 07:45:38;;;;;;;0.73;0.73;;;7.10;98.10;5.90;101894.00;;;;31172415;28;20273;-77
2021/12/12 08:00:42;;;;;;;0.20;0.20;;;7.20;98.00;6.10;101912.00;;;;31188937;28;20049;-78
2021/12/12 08:15:46;;;;;;;0.20;0.20;;;7.20;98.00;6.20;101923.00;;;;31214323;28;20481;-78
2021/12/12 08:30:50;;;;;;;0.20;0.20;;;7.40;98.10;6.30;101935.00;;;;31199948;28;20041;-79
2021/12/12 08:46:03;;;;;;;0.30;0.30;;;7.40;98.10;6.50;101947.00;;;;31196451;28;20118;-79
2021/12/12 09:01:10;;;;;;;0.90;0.90;;;7.50;98.10;6.60;101966.00;;;;31190480;28;20056;-79
2021/12/12 09:16:21;;;;;;;0.30;0.30;;;7.80;98.30;6.70;101987.00;;;;31165974;28;20042;-79
2021/12/12 09:31:32;;;;;;;0.20;0.20;;;7.80;98.70;6.90;102011.00;;;;31171865;28;20047;-79
2021/12/12 10:02:47;;;;;;;0.10;0.10;;;8.10;98.80;7.10;102012.00;;;;31190757;28;20454;-79
2021/12/12 10:17:58;;;;;;;0.20;0.20;;;8.30;98.40;7.30;102013.00;;;;31173819;28;20045;-78
2021/12/12 10:33:35;;;;;;;0.20;0.20;;;8.40;98.50;7.40;102015.00;;;;31168818;28;20146;-78
2021/12/12 10:49:17;;;;;;;0.10;0.10;;;8.50;98.90;7.60;102020.00;;;;31202762;28;20049;-78
2021/12/12 11:04:46;;;;;;;0.20;0.20;;;8.70;98.50;7.70;102005.00;;;;31170900;28;20041;-78
2021/12/12 11:20:20;;;;;;;0.22;0.22;;;8.70;98.50;7.80;102010.00;;;;31167276;28;20049;-79
2021/12/12 11:35:26;;;;;;;0.40;0.40;;;8.80;99.00;7.80;102003.00;;;;31205046;28;20037;-77
2021/12/12 11:50:41;;;;;;;0.20;0.20;;;9.00;98.50;7.90;102002.00;;;;31187958;28;20072;-78
2021/12/12 12:06:20;;;;;;;0.20;0.20;;;9.00;98.50;8.10;102020.00;;;;31174868;28;20456;-79
2021/12/12 12:22:13;;;;;;;0.20;0.20;;;10.10;99.00;8.20;102021.00;;;;31181606;28;20347;-80
2021/12/12 12:38:07;;;;;;;0.13;0.13;;;8.90;98.90;8.30;102030.00;;;;31185448;28;20077;-80
2021/12/12 12:53:28;;;;;;;0.30;0.30;;;9.40;98.50;8.40;102035.00;;;;31179798;28;20076;-79
2021/12/12 13:09:05;;;;;;;0.30;0.30;;;9.50;98.60;8.50;102041.00;;;;31160693;28;20053;-79
2021/12/12 13:24:25;;;;;;;0.47;0.47;;;9.50;98.60;8.60;102040.00;;;;31148706;28;20168;-79
2021/12/12 13:40:12;;;;;;;0.20;0.20;;;9.70;98.70;8.70;102053.00;;;;31162878;28;20045;-80
2021/12/12 13:55:38;;;;;;;;;;;9.80;98.70;8.80;102062.00;;;;31178915;28;20037;-79
2021/12/12 14:18:20;;;;;;;0.25;0.25;;;9.90;98.60;8.90;102073.00;;;;31630932;27;1629370;-80
2021/12/12 14:33:29;;;;;;;0.28;0.28;;;10.00;98.60;9.00;102094.00;;;;31519412;27;20044;-80
2021/12/12 14:49:06;;;;;;;0.10;0.10;;;10.00;99.10;9.00;102101.00;;;;31558724;27;20527;-81
2021/12/12 15:04:22;;;;;;;0.10;0.10;;;10.00;98.70;9.00;102125.00;;;;31578225;28;20043;-80
2021/12/12 15:19:29;;;;;;;0.10;0.10;;;10.00;98.70;9.10;102136.00;;;;31555955;28;20121;-80
2021/12/12 15:34:39;;;;;;;0.13;0.13;;;10.20;98.80;9.10;102138.00;;;;31461664;28;20059;-78
2021/12/12 15:49:48;;;;;;;0.20;0.20;;;10.10;98.70;9.10;102163.00;;;;31490670;28;20090;-81
2021/12/12 16:04:59;;;;;;;0.20;0.20;;;10.10;99.10;9.10;102164.00;;;;31468252;28;20949;-78
2021/12/12 16:20:21;;;;;;;0.20;0.20;;;10.20;98.70;9.20;102170.00;;;;31490515;28;20048;-78
2021/12/12 16:35:24;;;;;;;0.17;0.17;;;10.20;98.70;9.30;102185.00;;;;31459038;28;20196;-78
2021/12/12 17:07:09;;;;;;;0.20;0.20;;;10.40;98.70;9.40;102218.00;;;;31457183;28;20182;-79
2021/12/12 17:22:19;;;;;;;0.20;0.20;;;10.50;98.80;9.50;102228.00;;;;31453946;28;20039;-77
2021/12/12 17:37:25;;;;;;;0.22;0.22;;;10.50;99.00;9.50;102223.00;;;;31445384;28;20106;-77
2021/12/12 17:53:06;;;;;;;0.32;0.32;;;10.50;99.20;9.60;102233.00;;;;31462053;28;20176;-78
2021/12/12 18:08:38;;;;;;;0.10;0.10;;;10.60;98.70;9.60;102234.00;;;;31467113;28;20060;-77
2021/12/12 18:23:45;;;;;;;0.32;0.32;;;10.70;98.80;9.70;102250.00;;;;31440758;28;20551;-78
2021/12/12 18:39:18;;;;;;;0.10;0.10;;;10.80;98.80;9.80;102250.00;;;;31460079;28;20075;-78
2021/12/12 18:54:25;;;;;;;0.20;0.20;;;10.70;99.40;9.80;102256.00;;;;31473854;28;20045;-78
2021/12/12 19:09:45;;;;;;;0.10;0.10;;;10.90;98.80;9.90;102281.00;;;;31481913;28;20535;-79
2021/12/12 19:24:47;;;;;;;0.20;0.20;;;11.00;99.10;10.10;102291.00;;;;31469174;28;20056;-78
2021/12/12 19:40:00;;;;;;;0.10;0.10;;;11.20;99.40;10.10;102309.00;;;;31477972;28;20048;-79
2021/12/12 19:55:16;;;;;;;0.40;0.40;;;11.10;98.70;10.10;102316.00;;;;31465913;28;20098;-78
2021/12/12 20:10:26;;;;;;;0.43;0.43;;;11.10;98.60;10.10;102311.00;;;;31470339;28;20118;-79
2021/12/12 20:25:42;;;;;;;0.20;0.20;;;11.10;98.60;10.10;102323.00;;;;31464696;28;20044;-79
2021/12/12 20:40:50;;;;;;;0.50;0.50;;;11.10;98.40;10.20;102315.00;;;;31463832;28;20044;-78
2021/12/12 20:56:00;;;;;;;0.15;0.15;;;11.10;99.30;10.20;102336.00;;;;31462171;28;20048;-78
2021/12/12 21:11:06;;;;;;;0.55;0.55;;;11.20;98.40;10.20;102351.00;;;;31457245;28;20502;-78
2021/12/12 21:26:14;;;;;;;0.10;0.10;;;11.20;98.20;10.20;102352.00;;;;31453589;28;20581;-79
2021/12/12 21:41:15;;;;;;;0.30;0.30;;;11.20;98.10;10.20;102351.00;;;;31468879;28;20155;-78
2021/12/12 21:56:19;;;;;;;0.47;0.47;;;11.20;98.10;10.20;102351.00;;;;31467761;28;20075;-78
2021/12/12 22:11:21;;;;;;;0.40;0.40;;;11.20;98.00;10.20;102355.00;;;;31466508;28;20044;-78
2021/12/12 22:26:38;;;;;;;0.10;0.10;;;11.10;98.10;10.20;102368.00;;;;31463531;28;20044;-77
2021/12/12 22:41:54;;;;;;;0.10;0.10;;;11.10;98.10;10.20;102370.00;;;;31487621;28;20044;-78
2021/12/12 22:57:09;;;;;;;0.20;0.20;;;11.20;98.50;10.20;102378.00;;;;31501800;28;20060;-79
2021/12/12 23:12:11;;;;;;;;;;;11.10;98.10;10.10;102396.00;;;;31504653;28;20037;-79
2021/12/12 23:33:28;;;;;;;0.20;0.20;;;11.10;98.20;10.10;102388.00;;;;31199768;28;20448;-77
2021/12/12 23:48:33;;;;;;;0.30;0.30;;;11.10;98.20;10.10;102388.00;;;;31016733;28;20605;-77
